sensor_id;sensor_type;location;lat;lon;timestamp;P1;durP1;ratioP1;P2;durP2;ratioP2
56136;SDS011;42008;52.934;5.884;2023-03-04T00:02:16;22.43;;;3.63;;
56136;SDS011;42008;52.934;5.884;2023-03-04T00:04:42;24.37;;;4.00;;
56136;SDS011;42008;52.934;5.884;2023-03-04T00:07:07;21.50;;;3.33;;
56136;SDS011;42008;52.934;5.884;2023-03-04T00:09:33;20.83;;;3.80;;
56136;SDS011;42008;52.934;5.884;2023-03-04T00:11:58;23.67;;;3.10;;
56136;SDS011;42008;52.934;5.884;2023-03-04T00:14:24;29.37;;;4.03;;
56136;SDS011;42008;52.934;5.884;2023-03-04T00:16:49;18.93;;;3.33;;
56136;SDS011;42008;52.934;5.884;2023-03-04T00:19:15;22.63;;;3.90;;
56136;SDS011;42008;52.934;5.884;2023-03-04T00:21:40;24.93;;;3.30;;
56136;SDS011;42008;52.934;5.884;2023-03-04T00:24:06;22.47;;;3.40;;
56136;SDS011;42008;52.934;5.884;2023-03-04T00:26:32;24.00;;;3.73;;
56136;SDS011;42008;52.934;5.884;2023-03-04T00:28:57;24.13;;;4.10;;
56136;SDS011;42008;52.934;5.884;2023-03-04T00:31:23;24.67;;;3.23;;
56136;SDS011;42008;52.934;5.884;2023-03-04T00:33:48;18.77;;;3.67;;
56136;SDS011;42008;52.934;5.884;2023-03-04T00:36:14;19.37;;;2.93;;
56136;SDS011;42008;52.934;5.884;2023-03-04T00:38:39;19.60;;;2.80;;
56136;SDS011;42008;52.934;5.884;2023-03-04T00:41:05;26.07;;;3.80;;
56136;SDS011;42008;52.934;5.884;2023-03-04T00:43:30;23.50;;;4.13;;
56136;SDS011;42008;52.934;5.884;2023-03-04T00:45:56;26.47;;;4.53;;
56136;SDS011;42008;52.934;5.884;2023-03-04T00:48:22;24.67;;;3.10;;
56136;SDS011;42008;52.934;5.884;2023-03-04T00:50:48;22.93;;;3.10;;
56136;SDS011;42008;52.934;5.884;2023-03-04T00:53:15;24.20;;;3.23;;
56136;SDS011;42008;52.934;5.884;2023-03-04T00:55:41;24.83;;;3.23;;
56136;SDS011;42008;52.934;5.884;2023-03-04T00:58:06;25.70;;;3.30;;
56136;SDS011;42008;52.934;5.884;2023-03-04T01:00:32;27.90;;;3.60;;
56136;SDS011;42008;52.934;5.884;2023-03-04T01:02:57;20.33;;;3.13;;
56136;SDS011;42008;52.934;5.884;2023-03-04T01:05:23;20.77;;;3.47;;
56136;SDS011;42008;52.934;5.884;2023-03-04T01:07:49;24.10;;;3.23;;
56136;SDS011;42008;52.934;5.884;2023-03-04T01:10:14;19.53;;;2.80;;
56136;SDS011;42008;52.934;5.884;2023-03-04T01:12:40;24.30;;;3.03;;
56136;SDS011;42008;52.934;5.884;2023-03-04T01:15:07;24.17;;;4.33;;
56136;SDS011;42008;52.934;5.884;2023-03-04T01:17:34;14.40;;;2.50;;
56136;SDS011;42008;52.934;5.884;2023-03-04T01:20:00;20.23;;;3.07;;
56136;SDS011;42008;52.934;5.884;2023-03-04T01:22:25;17.43;;;2.70;;
56136;SDS011;42008;52.934;5.884;2023-03-04T01:24:51;20.23;;;3.10;;
56136;SDS011;42008;52.934;5.884;2023-03-04T01:27:17;18.73;;;2.80;;
56136;SDS011;42008;52.934;5.884;2023-03-04T01:29:42;17.87;;;2.97;;
56136;SDS011;42008;52.934;5.884;2023-03-04T01:32:08;20.97;;;3.93;;
56136;SDS011;42008;52.934;5.884;2023-03-04T01:34:33;29.47;;;3.27;;
56136;SDS011;42008;52.934;5.884;2023-03-04T01:37:00;18.40;;;3.00;;
56136;SDS011;42008;52.934;5.884;2023-03-04T01:39:26;19.20;;;3.17;;
56136;SDS011;42008;52.934;5.884;2023-03-04T01:41:51;14.53;;;2.57;;
56136;SDS011;42008;52.934;5.884;2023-03-04T01:44:17;17.53;;;2.60;;
56136;SDS011;42008;52.934;5.884;2023-03-04T01:46:45;17.50;;;2.53;;
56136;SDS011;42008;52.934;5.884;2023-03-04T01:49:13;18.27;;;2.63;;
56136;SDS011;42008;52.934;5.884;2023-03-04T01:51:41;20.63;;;3.40;;
56136;SDS011;42008;52.934;5.884;2023-03-04T01:54:13;17.87;;;2.97;;
56136;SDS011;42008;52.934;5.884;2023-03-04T01:56:39;21.47;;;3.37;;
56136;SDS011;42008;52.934;5.884;2023-03-04T01:59:13;14.30;;;3.07;;
56136;SDS011;42008;52.934;5.884;2023-03-04T02:01:56;19.23;;;2.57;;
56136;SDS011;42008;52.934;5.884;2023-03-04T02:04:24;19.90;;;3.00;;
56136;SDS011;42008;52.934;5.884;2023-03-04T02:06:53;14.47;;;2.80;;
56136;SDS011;42008;52.934;5.884;2023-03-04T02:09:20;12.80;;;1.97;;
56136;SDS011;42008;52.934;5.884;2023-03-04T02:11:46;19.87;;;4.50;;
56136;SDS011;42008;52.934;5.884;2023-03-04T02:14:13;24.27;;;4.00;;
56136;SDS011;42008;52.934;5.884;2023-03-04T02:16:39;16.50;;;3.17;;
56136;SDS011;42008;52.934;5.884;2023-03-04T02:19:06;21.63;;;2.80;;
56136;SDS011;42008;52.934;5.884;2023-03-04T02:21:43;20.53;;;3.63;;
56136;SDS011;42008;52.934;5.884;2023-03-04T02:26:34;25.57;;;3.23;;
56136;SDS011;42008;52.934;5.884;2023-03-04T02:29:01;22.43;;;2.77;;
56136;SDS011;42008;52.934;5.884;2023-03-04T02:31:31;22.80;;;3.27;;
56136;SDS011;42008;52.934;5.884;2023-03-04T02:33:58;20.63;;;3.10;;
56136;SDS011;42008;52.934;5.884;2023-03-04T02:36:26;14.67;;;2.63;;
56136;SDS011;42008;52.934;5.884;2023-03-04T02:38:53;16.17;;;2.97;;
56136;SDS011;42008;52.934;5.884;2023-03-04T02:41:21;21.70;;;2.90;;
56136;SDS011;42008;52.934;5.884;2023-03-04T02:43:50;17.97;;;2.93;;
56136;SDS011;42008;52.934;5.884;2023-03-04T02:46:17;23.20;;;3.30;;
56136;SDS011;42008;52.934;5.884;2023-03-04T02:48:43;19.87;;;3.23;;
56136;SDS011;42008;52.934;5.884;2023-03-04T02:51:09;14.43;;;2.80;;
56136;SDS011;42008;52.934;5.884;2023-03-04T02:53:34;16.80;;;3.60;;
56136;SDS011;42008;52.934;5.884;2023-03-04T02:56:00;16.53;;;2.50;;
56136;SDS011;42008;52.934;5.884;2023-03-04T02:58:26;18.03;;;2.50;;
56136;SDS011;42008;52.934;5.884;2023-03-04T03:00:51;21.13;;;3.23;;
56136;SDS011;42008;52.934;5.884;2023-03-04T03:03:17;16.73;;;2.90;;
56136;SDS011;42008;52.934;5.884;2023-03-04T03:05:43;19.07;;;3.43;;
56136;SDS011;42008;52.934;5.884;2023-03-04T03:08:08;15.87;;;3.07;;
56136;SDS011;42008;52.934;5.884;2023-03-04T03:10:34;22.37;;;3.30;;
56136;SDS011;42008;52.934;5.884;2023-03-04T03:12:59;21.37;;;3.47;;
56136;SDS011;42008;52.934;5.884;2023-03-04T03:15:25;19.40;;;3.17;;
56136;SDS011;42008;52.934;5.884;2023-03-04T03:17:51;17.63;;;2.90;;
56136;SDS011;42008;52.934;5.884;2023-03-04T03:20:16;22.77;;;3.43;;
56136;SDS011;42008;52.934;5.884;2023-03-04T03:22:42;20.40;;;3.30;;
56136;SDS011;42008;52.934;5.884;2023-03-04T03:25:09;18.83;;;3.30;;
56136;SDS011;42008;52.934;5.884;2023-03-04T03:27:36;17.90;;;3.30;;
56136;SDS011;42008;52.934;5.884;2023-03-04T03:30:02;19.13;;;3.40;;
56136;SDS011;42008;52.934;5.884;2023-03-04T03:32:28;19.97;;;3.00;;
56136;SDS011;42008;52.934;5.884;2023-03-04T03:34:54;22.23;;;3.40;;
56136;SDS011;42008;52.934;5.884;2023-03-04T03:37:19;18.40;;;2.40;;
56136;SDS011;42008;52.934;5.884;2023-03-04T03:39:45;20.93;;;3.37;;
56136;SDS011;42008;52.934;5.884;2023-03-04T03:42:10;14.13;;;2.50;;
56136;SDS011;42008;52.934;5.884;2023-03-04T03:44:36;13.60;;;2.67;;
56136;SDS011;42008;52.934;5.884;2023-03-04T03:47:02;18.90;;;3.00;;
56136;SDS011;42008;52.934;5.884;2023-03-04T03:49:27;12.73;;;2.50;;
56136;SDS011;42008;52.934;5.884;2023-03-04T03:51:53;13.93;;;2.93;;
56136;SDS011;42008;52.934;5.884;2023-03-04T03:54:18;11.97;;;2.97;;
56136;SDS011;42008;52.934;5.884;2023-03-04T03:56:44;22.77;;;3.30;;
56136;SDS011;42008;52.934;5.884;2023-03-04T03:59:09;14.87;;;2.60;;
56136;SDS011;42008;52.934;5.884;2023-03-04T04:01:35;13.43;;;2.40;;
56136;SDS011;42008;52.934;5.884;2023-03-04T04:04:01;13.80;;;2.40;;
56136;SDS011;42008;52.934;5.884;2023-03-04T04:06:27;14.83;;;2.53;;
56136;SDS011;42008;52.934;5.884;2023-03-04T04:08:52;14.07;;;2.60;;
56136;SDS011;42008;52.934;5.884;2023-03-04T04:11:18;16.20;;;2.90;;
56136;SDS011;42008;52.934;5.884;2023-03-04T04:13:43;21.73;;;3.27;;
56136;SDS011;42008;52.934;5.884;2023-03-04T04:16:09;19.40;;;3.23;;
56136;SDS011;42008;52.934;5.884;2023-03-04T04:18:35;13.67;;;2.60;;
56136;SDS011;42008;52.934;5.884;2023-03-04T04:21:01;15.63;;;2.60;;
56136;SDS011;42008;52.934;5.884;2023-03-04T04:23:28;18.60;;;2.87;;
56136;SDS011;42008;52.934;5.884;2023-03-04T04:25:54;13.47;;;2.30;;
56136;SDS011;42008;52.934;5.884;2023-03-04T04:28:20;15.93;;;3.40;;
56136;SDS011;42008;52.934;5.884;2023-03-04T04:30:46;20.43;;;4.00;;
56136;SDS011;42008;52.934;5.884;2023-03-04T04:33:11;10.37;;;2.30;;
56136;SDS011;42008;52.934;5.884;2023-03-04T04:35:37;15.40;;;2.67;;
56136;SDS011;42008;52.934;5.884;2023-03-04T04:38:03;14.50;;;2.77;;
56136;SDS011;42008;52.934;5.884;2023-03-04T04:40:30;16.47;;;2.37;;
56136;SDS011;42008;52.934;5.884;2023-03-04T04:42:55;14.87;;;2.63;;
56136;SDS011;42008;52.934;5.884;2023-03-04T04:45:21;18.23;;;2.93;;
56136;SDS011;42008;52.934;5.884;2023-03-04T04:47:49;22.80;;;2.90;;
56136;SDS011;42008;52.934;5.884;2023-03-04T04:50:17;18.33;;;2.43;;
56136;SDS011;42008;52.934;5.884;2023-03-04T04:52:42;11.17;;;2.37;;
56136;SDS011;42008;52.934;5.884;2023-03-04T04:55:08;8.63;;;1.90;;
56136;SDS011;42008;52.934;5.884;2023-03-04T04:57:34;12.87;;;1.70;;
56136;SDS011;42008;52.934;5.884;2023-03-04T05:00:00;14.10;;;2.23;;
56136;SDS011;42008;52.934;5.884;2023-03-04T05:02:25;8.30;;;2.03;;
56136;SDS011;42008;52.934;5.884;2023-03-04T05:04:51;14.37;;;1.90;;
56136;SDS011;42008;52.934;5.884;2023-03-04T05:07:17;8.90;;;1.70;;
56136;SDS011;42008;52.934;5.884;2023-03-04T05:09:43;14.17;;;2.47;;
56136;SDS011;42008;52.934;5.884;2023-03-04T05:12:08;8.37;;;1.90;;
56136;SDS011;42008;52.934;5.884;2023-03-04T05:14:34;13.23;;;2.07;;
56136;SDS011;42008;52.934;5.884;2023-03-04T05:16:59;11.30;;;2.30;;
56136;SDS011;42008;52.934;5.884;2023-03-04T05:19:25;10.87;;;2.20;;
56136;SDS011;42008;52.934;5.884;2023-03-04T05:21:50;13.63;;;2.03;;
56136;SDS011;42008;52.934;5.884;2023-03-04T05:24:16;11.37;;;2.30;;
56136;SDS011;42008;52.934;5.884;2023-03-04T05:26:42;13.20;;;2.10;;
56136;SDS011;42008;52.934;5.884;2023-03-04T05:29:07;15.03;;;2.20;;
56136;SDS011;42008;52.934;5.884;2023-03-04T05:31:33;10.77;;;2.03;;
56136;SDS011;42008;52.934;5.884;2023-03-04T05:33:58;13.00;;;1.90;;
56136;SDS011;42008;52.934;5.884;2023-03-04T05:36:25;8.50;;;1.90;;
56136;SDS011;42008;52.934;5.884;2023-03-04T05:38:51;13.03;;;2.73;;
56136;SDS011;42008;52.934;5.884;2023-03-04T05:41:16;18.53;;;2.77;;
56136;SDS011;42008;52.934;5.884;2023-03-04T05:43:46;12.83;;;1.97;;
56136;SDS011;42008;52.934;5.884;2023-03-04T05:46:13;10.90;;;1.83;;
56136;SDS011;42008;52.934;5.884;2023-03-04T05:48:40;11.87;;;2.53;;
56136;SDS011;42008;52.934;5.884;2023-03-04T05:51:05;13.97;;;2.13;;
56136;SDS011;42008;52.934;5.884;2023-03-04T05:53:31;12.83;;;2.40;;
56136;SDS011;42008;52.934;5.884;2023-03-04T05:55:57;10.73;;;1.80;;
56136;SDS011;42008;52.934;5.884;2023-03-04T05:58:25;9.60;;;1.50;;
56136;SDS011;42008;52.934;5.884;2023-03-04T06:00:51;11.53;;;1.77;;
56136;SDS011;42008;52.934;5.884;2023-03-04T06:03:18;12.33;;;1.73;;
56136;SDS011;42008;52.934;5.884;2023-03-04T06:05:44;11.13;;;2.30;;
56136;SDS011;42008;52.934;5.884;2023-03-04T06:08:10;7.40;;;1.90;;
56136;SDS011;42008;52.934;5.884;2023-03-04T06:10:37;15.07;;;1.90;;
56136;SDS011;42008;52.934;5.884;2023-03-04T06:13:04;13.00;;;2.10;;
56136;SDS011;42008;52.934;5.884;2023-03-04T06:15:30;13.03;;;1.90;;
56136;SDS011;42008;52.934;5.884;2023-03-04T06:17:56;10.27;;;1.50;;
56136;SDS011;42008;52.934;5.884;2023-03-04T06:20:21;11.53;;;2.27;;
56136;SDS011;42008;52.934;5.884;2023-03-04T06:22:47;15.27;;;2.27;;
56136;SDS011;42008;52.934;5.884;2023-03-04T06:25:13;10.47;;;1.80;;
56136;SDS011;42008;52.934;5.884;2023-03-04T06:27:39;9.73;;;1.97;;
56136;SDS011;42008;52.934;5.884;2023-03-04T06:30:04;11.77;;;2.13;;
56136;SDS011;42008;52.934;5.884;2023-03-04T06:32:30;12.93;;;2.20;;
56136;SDS011;42008;52.934;5.884;2023-03-04T06:34:56;11.63;;;1.77;;
56136;SDS011;42008;52.934;5.884;2023-03-04T06:37:22;20.03;;;3.10;;
56136;SDS011;42008;52.934;5.884;2023-03-04T06:39:47;11.13;;;2.20;;
56136;SDS011;42008;52.934;5.884;2023-03-04T06:42:13;14.80;;;2.20;;
56136;SDS011;42008;52.934;5.884;2023-03-04T06:44:38;19.93;;;2.27;;
56136;SDS011;42008;52.934;5.884;2023-03-04T06:47:04;11.17;;;2.37;;
56136;SDS011;42008;52.934;5.884;2023-03-04T06:49:30;15.40;;;2.77;;
56136;SDS011;42008;52.934;5.884;2023-03-04T06:51:55;10.47;;;2.00;;
56136;SDS011;42008;52.934;5.884;2023-03-04T06:54:21;18.67;;;2.43;;
56136;SDS011;42008;52.934;5.884;2023-03-04T06:56:46;14.00;;;2.60;;
56136;SDS011;42008;52.934;5.884;2023-03-04T06:59:12;11.67;;;2.20;;
56136;SDS011;42008;52.934;5.884;2023-03-04T07:01:38;10.80;;;2.40;;
56136;SDS011;42008;52.934;5.884;2023-03-04T07:04:03;15.73;;;2.97;;
56136;SDS011;42008;52.934;5.884;2023-03-04T07:06:29;10.83;;;2.37;;
56136;SDS011;42008;52.934;5.884;2023-03-04T07:08:55;11.17;;;2.07;;
56136;SDS011;42008;52.934;5.884;2023-03-04T07:11:21;19.83;;;3.33;;
56136;SDS011;42008;52.934;5.884;2023-03-04T07:13:47;11.73;;;2.20;;
56136;SDS011;42008;52.934;5.884;2023-03-04T07:16:14;9.20;;;1.97;;
56136;SDS011;42008;52.934;5.884;2023-03-04T07:18:42;8.53;;;1.60;;
56136;SDS011;42008;52.934;5.884;2023-03-04T07:21:08;18.93;;;2.07;;
56136;SDS011;42008;52.934;5.884;2023-03-04T07:23:35;10.47;;;2.00;;
56136;SDS011;42008;52.934;5.884;2023-03-04T07:26:01;11.60;;;1.63;;
56136;SDS011;42008;52.934;5.884;2023-03-04T07:28:27;14.60;;;2.63;;
56136;SDS011;42008;52.934;5.884;2023-03-04T07:30:52;14.60;;;2.20;;
56136;SDS011;42008;52.934;5.884;2023-03-04T07:33:18;13.47;;;2.63;;
56136;SDS011;42008;52.934;5.884;2023-03-04T07:35:43;14.80;;;2.57;;
56136;SDS011;42008;52.934;5.884;2023-03-04T07:38:09;13.40;;;1.93;;
56136;SDS011;42008;52.934;5.884;2023-03-04T07:40:35;15.80;;;1.90;;
56136;SDS011;42008;52.934;5.884;2023-03-04T07:43:00;12.73;;;2.03;;
56136;SDS011;42008;52.934;5.884;2023-03-04T07:45:26;13.63;;;2.43;;
56136;SDS011;42008;52.934;5.884;2023-03-04T07:47:52;11.50;;;2.10;;
56136;SDS011;42008;52.934;5.884;2023-03-04T07:50:18;15.03;;;1.97;;
56136;SDS011;42008;52.934;5.884;2023-03-04T07:52:45;15.73;;;2.30;;
56136;SDS011;42008;52.934;5.884;2023-03-04T07:55:13;11.77;;;2.73;;
56136;SDS011;42008;52.934;5.884;2023-03-04T07:57:40;8.23;;;1.60;;
56136;SDS011;42008;52.934;5.884;2023-03-04T08:00:07;11.10;;;2.03;;
56136;SDS011;42008;52.934;5.884;2023-03-04T08:02:33;17.33;;;2.87;;
56136;SDS011;42008;52.934;5.884;2023-03-04T08:04:59;15.40;;;2.03;;
56136;SDS011;42008;52.934;5.884;2023-03-04T08:07:25;15.03;;;2.20;;
56136;SDS011;42008;52.934;5.884;2023-03-04T08:09:50;13.67;;;1.90;;
56136;SDS011;42008;52.934;5.884;2023-03-04T08:12:16;15.50;;;2.50;;
56136;SDS011;42008;52.934;5.884;2023-03-04T08:14:41;15.57;;;2.67;;
56136;SDS011;42008;52.934;5.884;2023-03-04T08:17:07;12.23;;;1.87;;
56136;SDS011;42008;52.934;5.884;2023-03-04T08:19:33;12.73;;;2.00;;
56136;SDS011;42008;52.934;5.884;2023-03-04T08:21:59;12.93;;;1.83;;
56136;SDS011;42008;52.934;5.884;2023-03-04T08:24:25;8.40;;;1.83;;
56136;SDS011;42008;52.934;5.884;2023-03-04T08:26:51;10.10;;;1.50;;
56136;SDS011;42008;52.934;5.884;2023-03-04T08:29:18;10.50;;;1.93;;
56136;SDS011;42008;52.934;5.884;2023-03-04T08:31:46;13.07;;;1.70;;
56136;SDS011;42008;52.934;5.884;2023-03-04T08:34:13;14.97;;;2.27;;
56136;SDS011;42008;52.934;5.884;2023-03-04T08:36:39;9.07;;;2.00;;
56136;SDS011;42008;52.934;5.884;2023-03-04T08:39:06;15.57;;;2.33;;
56136;SDS011;42008;52.934;5.884;2023-03-04T08:41:32;11.60;;;2.00;;
56136;SDS011;42008;52.934;5.884;2023-03-04T08:43:58;20.53;;;2.57;;
56136;SDS011;42008;52.934;5.884;2023-03-04T08:46:24;11.27;;;2.23;;
56136;SDS011;42008;52.934;5.884;2023-03-04T08:48:50;11.97;;;2.00;;
56136;SDS011;42008;52.934;5.884;2023-03-04T08:51:15;14.90;;;1.93;;
56136;SDS011;42008;52.934;5.884;2023-03-04T08:53:41;12.70;;;1.83;;
56136;SDS011;42008;52.934;5.884;2023-03-04T08:56:07;14.27;;;1.97;;
56136;SDS011;42008;52.934;5.884;2023-03-04T08:58:34;10.67;;;1.57;;
56136;SDS011;42008;52.934;5.884;2023-03-04T09:00:59;12.37;;;2.20;;
56136;SDS011;42008;52.934;5.884;2023-03-04T09:03:26;10.57;;;2.10;;
56136;SDS011;42008;52.934;5.884;2023-03-04T09:05:52;15.03;;;2.93;;
56136;SDS011;42008;52.934;5.884;2023-03-04T09:08:18;10.47;;;2.10;;
56136;SDS011;42008;52.934;5.884;2023-03-04T09:10:44;13.10;;;1.90;;
56136;SDS011;42008;52.934;5.884;2023-03-04T09:13:10;11.53;;;2.07;;
56136;SDS011;42008;52.934;5.884;2023-03-04T09:15:42;10.90;;;2.03;;
56136;SDS011;42008;52.934;5.884;2023-03-04T09:18:12;17.10;;;2.67;;
56136;SDS011;42008;52.934;5.884;2023-03-04T09:20:38;20.03;;;3.77;;
56136;SDS011;42008;52.934;5.884;2023-03-04T09:23:04;24.83;;;4.57;;
56136;SDS011;42008;52.934;5.884;2023-03-04T09:25:30;22.30;;;3.50;;
56136;SDS011;42008;52.934;5.884;2023-03-04T09:27:56;17.93;;;2.27;;
56136;SDS011;42008;52.934;5.884;2023-03-04T09:30:22;17.47;;;2.43;;
56136;SDS011;42008;52.934;5.884;2023-03-04T09:32:48;14.00;;;2.47;;
56136;SDS011;42008;52.934;5.884;2023-03-04T09:35:13;15.23;;;3.13;;
56136;SDS011;42008;52.934;5.884;2023-03-04T09:37:39;22.70;;;3.60;;
56136;SDS011;42008;52.934;5.884;2023-03-04T09:40:05;23.10;;;2.90;;
56136;SDS011;42008;52.934;5.884;2023-03-04T09:45:02;27.70;;;3.63;;
56136;SDS011;42008;52.934;5.884;2023-03-04T09:47:30;23.73;;;4.07;;
56136;SDS011;42008;52.934;5.884;2023-03-04T09:50:00;29.00;;;4.17;;
56136;SDS011;42008;52.934;5.884;2023-03-04T10:03:42;24.92;;;4.47;;
56136;SDS011;42008;52.934;5.884;2023-03-04T10:06:16;25.33;;;4.70;;
56136;SDS011;42008;52.934;5.884;2023-03-04T10:08:49;20.10;;;3.87;;
56136;SDS011;42008;52.934;5.884;2023-03-04T10:19:27;26.90;;;4.03;;
56136;SDS011;42008;52.934;5.884;2023-03-04T10:22:19;18.43;;;3.87;;
56136;SDS011;42008;52.934;5.884;2023-03-04T10:24:50;22.60;;;4.13;;
56136;SDS011;42008;52.934;5.884;2023-03-04T10:27:17;24.53;;;3.73;;
56136;SDS011;42008;52.934;5.884;2023-03-04T10:29:44;19.57;;;3.93;;
56136;SDS011;42008;52.934;5.884;2023-03-04T10:32:13;22.50;;;3.17;;
56136;SDS011;42008;52.934;5.884;2023-03-04T10:34:41;22.67;;;3.83;;
56136;SDS011;42008;52.934;5.884;2023-03-04T10:37:07;21.10;;;3.80;;
56136;SDS011;42008;52.934;5.884;2023-03-04T10:42:26;22.20;;;3.47;;
56136;SDS011;42008;52.934;5.884;2023-03-04T10:44:59;19.63;;;3.60;;
56136;SDS011;42008;52.934;5.884;2023-03-04T10:47:26;19.08;;;4.18;;
56136;SDS011;42008;52.934;5.884;2023-03-04T10:49:54;23.30;;;3.43;;
56136;SDS011;42008;52.934;5.884;2023-03-04T10:55:05;16.77;;;2.77;;
56136;SDS011;42008;52.934;5.884;2023-03-04T10:57:40;15.70;;;2.80;;
56136;SDS011;42008;52.934;5.884;2023-03-04T11:02:42;18.63;;;2.20;;
56136;SDS011;42008;52.934;5.884;2023-03-04T11:05:18;13.10;;;2.07;;
56136;SDS011;42008;52.934;5.884;2023-03-04T11:07:52;12.83;;;2.67;;
56136;SDS011;42008;52.934;5.884;2023-03-04T11:12:47;7.53;;;2.20;;
56136;SDS011;42008;52.934;5.884;2023-03-04T11:15:21;10.40;;;1.93;;
56136;SDS011;42008;52.934;5.884;2023-03-04T11:17:52;11.70;;;1.83;;
56136;SDS011;42008;52.934;5.884;2023-03-04T11:20:31;8.33;;;1.67;;
56136;SDS011;42008;52.934;5.884;2023-03-04T11:23:05;6.80;;;1.70;;
56136;SDS011;42008;52.934;5.884;2023-03-04T11:25:53;14.70;;;2.00;;
56136;SDS011;42008;52.934;5.884;2023-03-04T11:28:43;12.77;;;2.17;;
56136;SDS011;42008;52.934;5.884;2023-03-04T11:31:19;11.13;;;2.10;;
56136;SDS011;42008;52.934;5.884;2023-03-04T11:33:50;11.93;;;2.50;;
56136;SDS011;42008;52.934;5.884;2023-03-04T11:36:34;14.98;;;2.17;;
56136;SDS011;42008;52.934;5.884;2023-03-04T11:39:08;8.20;;;1.60;;
56136;SDS011;42008;52.934;5.884;2023-03-04T11:41:53;12.77;;;4.57;;
56136;SDS011;42008;52.934;5.884;2023-03-04T11:44:24;9.87;;;3.60;;
56136;SDS011;42008;52.934;5.884;2023-03-04T11:46:57;14.47;;;3.40;;
56136;SDS011;42008;52.934;5.884;2023-03-04T12:06:36;11.37;;;2.60;;
56136;SDS011;42008;52.934;5.884;2023-03-04T12:10:01;15.00;;;2.57;;
56136;SDS011;42008;52.934;5.884;2023-03-04T12:20:26;17.63;;;3.10;;
56136;SDS011;42008;52.934;5.884;2023-03-04T12:31:53;15.67;;;3.20;;
56136;SDS011;42008;52.934;5.884;2023-03-04T12:39:47;25.47;;;4.17;;
56136;SDS011;42008;52.934;5.884;2023-03-04T12:44:57;21.40;;;3.47;;
56136;SDS011;42008;52.934;5.884;2023-03-04T12:47:51;20.60;;;3.07;;
56136;SDS011;42008;52.934;5.884;2023-03-04T12:50:52;16.30;;;2.80;;
56136;SDS011;42008;52.934;5.884;2023-03-04T12:56:16;15.60;;;2.73;;
56136;SDS011;42008;52.934;5.884;2023-03-04T12:58:47;15.07;;;2.40;;
56136;SDS011;42008;52.934;5.884;2023-03-04T13:01:24;24.67;;;4.07;;
56136;SDS011;42008;52.934;5.884;2023-03-04T13:04:00;27.27;;;4.03;;
56136;SDS011;42008;52.934;5.884;2023-03-04T13:06:35;22.60;;;3.67;;
56136;SDS011;42008;52.934;5.884;2023-03-04T13:09:18;29.07;;;5.00;;
56136;SDS011;42008;52.934;5.884;2023-03-04T13:11:54;21.23;;;3.63;;
56136;SDS011;42008;52.934;5.884;2023-03-04T13:14:41;22.87;;;3.77;;
56136;SDS011;42008;52.934;5.884;2023-03-04T13:28:12;23.20;;;3.87;;
56136;SDS011;42008;52.934;5.884;2023-03-04T14:03:58;22.80;;;3.90;;
56136;SDS011;42008;52.934;5.884;2023-03-04T14:06:25;21.27;;;3.40;;
56136;SDS011;42008;52.934;5.884;2023-03-04T14:08:53;18.63;;;3.23;;
56136;SDS011;42008;52.934;5.884;2023-03-04T14:11:25;21.40;;;3.63;;
56136;SDS011;42008;52.934;5.884;2023-03-04T14:14:06;18.83;;;3.90;;
56136;SDS011;42008;52.934;5.884;2023-03-04T14:16:39;22.27;;;4.10;;
56136;SDS011;42008;52.934;5.884;2023-03-04T14:19:15;21.20;;;4.63;;
56136;SDS011;42008;52.934;5.884;2023-03-04T14:21:50;16.87;;;3.57;;
56136;SDS011;42008;52.934;5.884;2023-03-04T14:24:18;22.03;;;4.47;;
56136;SDS011;42008;52.934;5.884;2023-03-04T14:26:45;19.23;;;4.10;;
56136;SDS011;42008;52.934;5.884;2023-03-04T14:29:22;20.47;;;3.37;;
56136;SDS011;42008;52.934;5.884;2023-03-04T14:31:50;14.60;;;3.63;;
56136;SDS011;42008;52.934;5.884;2023-03-04T14:34:20;19.60;;;3.40;;
56136;SDS011;42008;52.934;5.884;2023-03-04T14:36:53;18.20;;;3.47;;
56136;SDS011;42008;52.934;5.884;2023-03-04T14:39:20;16.87;;;3.47;;
56136;SDS011;42008;52.934;5.884;2023-03-04T14:41:48;19.93;;;3.23;;
56136;SDS011;42008;52.934;5.884;2023-03-04T14:46:48;14.90;;;3.07;;
56136;SDS011;42008;52.934;5.884;2023-03-04T14:49:18;18.40;;;3.73;;
56136;SDS011;42008;52.934;5.884;2023-03-04T14:51:47;18.20;;;3.27;;
56136;SDS011;42008;52.934;5.884;2023-03-04T14:59:50;13.70;;;2.70;;
56136;SDS011;42008;52.934;5.884;2023-03-04T15:02:18;12.70;;;2.93;;
56136;SDS011;42008;52.934;5.884;2023-03-04T15:04:45;17.57;;;3.27;;
56136;SDS011;42008;52.934;5.884;2023-03-04T15:07:13;16.07;;;4.10;;
56136;SDS011;42008;52.934;5.884;2023-03-04T15:09:40;13.70;;;3.40;;
56136;SDS011;42008;52.934;5.884;2023-03-04T15:12:07;14.13;;;2.87;;
56136;SDS011;42008;52.934;5.884;2023-03-04T15:14:43;14.87;;;3.43;;
56136;SDS011;42008;52.934;5.884;2023-03-04T15:20:17;14.70;;;3.20;;
56136;SDS011;42008;52.934;5.884;2023-03-04T15:25:17;21.23;;;3.53;;
56136;SDS011;42008;52.934;5.884;2023-03-04T15:27:43;17.10;;;2.70;;
56136;SDS011;42008;52.934;5.884;2023-03-04T15:30:20;14.00;;;3.03;;
56136;SDS011;42008;52.934;5.884;2023-03-04T15:32:48;16.17;;;2.30;;
56136;SDS011;42008;52.934;5.884;2023-03-04T15:35:15;14.97;;;2.57;;
56136;SDS011;42008;52.934;5.884;2023-03-04T15:37:41;19.17;;;3.20;;
56136;SDS011;42008;52.934;5.884;2023-03-04T15:40:23;21.07;;;3.17;;
56136;SDS011;42008;52.934;5.884;2023-03-04T15:42:51;16.53;;;3.07;;
56136;SDS011;42008;52.934;5.884;2023-03-04T15:47:50;20.57;;;3.80;;
56136;SDS011;42008;52.934;5.884;2023-03-04T15:50:16;23.07;;;3.20;;
56136;SDS011;42008;52.934;5.884;2023-03-04T15:52:43;20.43;;;3.77;;
56136;SDS011;42008;52.934;5.884;2023-03-04T15:55:12;17.50;;;3.60;;
56136;SDS011;42008;52.934;5.884;2023-03-04T15:57:43;15.20;;;3.30;;
56136;SDS011;42008;52.934;5.884;2023-03-04T16:00:11;16.70;;;2.83;;
56136;SDS011;42008;52.934;5.884;2023-03-04T16:02:38;17.80;;;2.93;;
56136;SDS011;42008;52.934;5.884;2023-03-04T16:05:04;14.60;;;2.67;;
56136;SDS011;42008;52.934;5.884;2023-03-04T16:07:31;18.50;;;2.83;;
56136;SDS011;42008;52.934;5.884;2023-03-04T16:09:58;14.17;;;2.80;;
56136;SDS011;42008;52.934;5.884;2023-03-04T16:12:28;18.40;;;3.77;;
56136;SDS011;42008;52.934;5.884;2023-03-04T16:14:53;15.37;;;3.40;;
56136;SDS011;42008;52.934;5.884;2023-03-04T16:17:19;18.13;;;3.33;;
56136;SDS011;42008;52.934;5.884;2023-03-04T16:19:45;25.37;;;4.37;;
56136;SDS011;42008;52.934;5.884;2023-03-04T16:22:15;26.93;;;3.97;;
56136;SDS011;42008;52.934;5.884;2023-03-04T16:24:43;17.85;;;4.18;;
56136;SDS011;42008;52.934;5.884;2023-03-04T16:27:09;19.00;;;4.00;;
56136;SDS011;42008;52.934;5.884;2023-03-04T16:29:39;24.37;;;4.70;;
56136;SDS011;42008;52.934;5.884;2023-03-04T16:32:05;18.63;;;3.83;;
56136;SDS011;42008;52.934;5.884;2023-03-04T16:34:32;17.27;;;4.50;;
56136;SDS011;42008;52.934;5.884;2023-03-04T16:36:58;15.37;;;3.03;;
56136;SDS011;42008;52.934;5.884;2023-03-04T16:39:27;26.87;;;3.37;;
56136;SDS011;42008;52.934;5.884;2023-03-04T16:41:53;21.13;;;4.03;;
56136;SDS011;42008;52.934;5.884;2023-03-04T16:44:19;28.20;;;5.03;;
56136;SDS011;42008;52.934;5.884;2023-03-04T16:46:44;22.20;;;4.00;;
56136;SDS011;42008;52.934;5.884;2023-03-04T16:49:10;18.80;;;3.37;;
56136;SDS011;42008;52.934;5.884;2023-03-04T16:51:39;13.83;;;3.17;;
56136;SDS011;42008;52.934;5.884;2023-03-04T16:54:10;14.68;;;3.92;;
56136;SDS011;42008;52.934;5.884;2023-03-04T16:56:39;21.80;;;3.72;;
56136;SDS011;42008;52.934;5.884;2023-03-04T16:59:05;14.30;;;2.77;;
56136;SDS011;42008;52.934;5.884;2023-03-04T17:01:30;19.40;;;3.40;;